sensor_id;sensor_type;location;lat;lon;timestamp;pressure;altitude;pressure_sealevel;temperature;humidity
62928;BME280;51070;52.236;-0.892;2023-05-08T00:02:03;101114.02;;;13.61;80.60
62928;BME280;51070;52.236;-0.892;2023-05-08T00:04:29;101109.63;;;13.59;80.72
62928;BME280;51070;52.236;-0.892;2023-05-08T00:06:54;101105.90;;;13.56;80.96
62928;BME280;51070;52.236;-0.892;2023-05-08T00:09:20;101103.91;;;13.53;80.99
62928;BME280;51070;52.236;-0.892;2023-05-08T00:11:45;101098.61;;;13.50;80.99
62928;BME280;51070;52.236;-0.892;2023-05-08T00:14:11;101097.09;;;13.44;81.15
62928;BME280;51070;52.236;-0.892;2023-05-08T00:16:37;101100.77;;;13.39;81.52
62928;BME280;51070;52.236;-0.892;2023-05-08T00:19:02;101097.48;;;13.33;81.55
62928;BME280;51070;52.236;-0.892;2023-05-08T00:21:28;101098.77;;;13.30;81.87
62928;BME280;51070;52.236;-0.892;2023-05-08T00:23:53;101105.75;;;13.31;81.85
62928;BME280;51070;52.236;-0.892;2023-05-08T00:26:19;101103.57;;;13.34;81.92
62928;BME280;51070;52.236;-0.892;2023-05-08T00:28:46;101102.30;;;13.38;81.82
62928;BME280;51070;52.236;-0.892;2023-05-08T00:31:11;101100.78;;;13.40;81.78
62928;BME280;51070;52.236;-0.892;2023-05-08T00:33:38;101098.90;;;13.41;82.08
62928;BME280;51070;52.236;-0.892;2023-05-08T00:36:04;101100.62;;;13.40;81.81
62928;BME280;51070;52.236;-0.892;2023-05-08T00:38:31;101097.77;;;13.37;81.89
62928;BME280;51070;52.236;-0.892;2023-05-08T00:40:56;101093.55;;;13.36;81.97
62928;BME280;51070;52.236;-0.892;2023-05-08T00:43:22;101096.89;;;13.30;81.97
62928;BME280;51070;52.236;-0.892;2023-05-08T00:45:51;101096.98;;;13.28;82.16
62928;BME280;51070;52.236;-0.892;2023-05-08T00:48:17;101101.58;;;13.24;82.20
62928;BME280;51070;52.236;-0.892;2023-05-08T00:50:43;101101.30;;;13.20;82.35
62928;BME280;51070;52.236;-0.892;2023-05-08T00:53:10;101096.77;;;13.20;82.45
62928;BME280;51070;52.236;-0.892;2023-05-08T00:55:36;101094.13;;;13.19;82.66
62928;BME280;51070;52.236;-0.892;2023-05-08T00:58:02;101094.45;;;13.18;82.88
62928;BME280;51070;52.236;-0.892;2023-05-08T01:00:28;101088.39;;;13.18;83.07
62928;BME280;51070;52.236;-0.892;2023-05-08T01:02:55;101094.19;;;13.20;82.85
62928;BME280;51070;52.236;-0.892;2023-05-08T01:05:20;101096.42;;;13.20;82.61
62928;BME280;51070;52.236;-0.892;2023-05-08T01:07:45;101092.00;;;13.17;82.63
62928;BME280;51070;52.236;-0.892;2023-05-08T01:10:11;101090.77;;;13.11;82.76
62928;BME280;51070;52.236;-0.892;2023-05-08T01:13:02;101093.51;;;13.03;82.95
62928;BME280;51070;52.236;-0.892;2023-05-08T01:15:42;101092.33;;;12.98;83.15
62928;BME280;51070;52.236;-0.892;2023-05-08T01:18:31;101090.30;;;12.94;83.53
62928;BME280;51070;52.236;-0.892;2023-05-08T01:21:27;101090.50;;;12.95;83.58
62928;BME280;51070;52.236;-0.892;2023-05-08T01:24:21;101086.53;;;12.96;83.65
62928;BME280;51070;52.236;-0.892;2023-05-08T01:32:29;101085.08;;;12.93;83.50
62928;BME280;51070;52.236;-0.892;2023-05-08T01:35:16;101084.63;;;12.90;83.65
62928;BME280;51070;52.236;-0.892;2023-05-08T01:37:59;101081.17;;;12.85;83.58
62928;BME280;51070;52.236;-0.892;2023-05-08T01:40:34;101080.94;;;12.76;83.87
62928;BME280;51070;52.236;-0.892;2023-05-08T01:45:40;101081.23;;;12.68;84.34
62928;BME280;51070;52.236;-0.892;2023-05-08T01:48:31;101078.98;;;12.69;84.41
62928;BME280;51070;52.236;-0.892;2023-05-08T01:51:02;101080.35;;;12.68;84.10
62928;BME280;51070;52.236;-0.892;2023-05-08T01:53:36;101080.88;;;12.69;84.39
62928;BME280;51070;52.236;-0.892;2023-05-08T01:56:08;101079.79;;;12.72;84.47
62928;BME280;51070;52.236;-0.892;2023-05-08T01:58:36;101078.97;;;12.74;84.42
62928;BME280;51070;52.236;-0.892;2023-05-08T02:01:02;101076.91;;;12.75;84.06
62928;BME280;51070;52.236;-0.892;2023-05-08T02:03:33;101080.16;;;12.73;83.89
62928;BME280;51070;52.236;-0.892;2023-05-08T02:06:00;101084.09;;;12.72;84.12
62928;BME280;51070;52.236;-0.892;2023-05-08T02:08:28;101083.36;;;12.70;84.18
62928;BME280;51070;52.236;-0.892;2023-05-08T02:10:55;101082.58;;;12.68;84.13
62928;BME280;51070;52.236;-0.892;2023-05-08T02:13:22;101088.25;;;12.66;84.06
62928;BME280;51070;52.236;-0.892;2023-05-08T02:15:50;101087.15;;;12.64;83.87
62928;BME280;51070;52.236;-0.892;2023-05-08T02:18:19;101084.67;;;12.62;83.87
62928;BME280;51070;52.236;-0.892;2023-05-08T02:20:48;101079.98;;;12.61;84.11
62928;BME280;51070;52.236;-0.892;2023-05-08T02:23:16;101081.23;;;12.63;83.85
62928;BME280;51070;52.236;-0.892;2023-05-08T02:25:43;101080.30;;;12.61;84.01
62928;BME280;51070;52.236;-0.892;2023-05-08T02:28:11;101077.48;;;12.59;83.68
62928;BME280;51070;52.236;-0.892;2023-05-08T02:30:37;101078.56;;;12.55;83.82
62928;BME280;51070;52.236;-0.892;2023-05-08T02:33:07;101074.68;;;12.52;83.90
62928;BME280;51070;52.236;-0.892;2023-05-08T02:35:36;101069.64;;;12.52;84.32
62928;BME280;51070;52.236;-0.892;2023-05-08T02:38:02;101067.36;;;12.51;83.99
62928;BME280;51070;52.236;-0.892;2023-05-08T02:40:36;101066.33;;;12.46;83.89
62928;BME280;51070;52.236;-0.892;2023-05-08T02:43:03;101058.17;;;12.40;84.02
62928;BME280;51070;52.236;-0.892;2023-05-08T02:45:35;101055.38;;;12.33;84.16
62928;BME280;51070;52.236;-0.892;2023-05-08T02:48:09;101053.41;;;12.26;84.04
62928;BME280;51070;52.236;-0.892;2023-05-08T02:51:11;101055.40;;;12.23;84.45
62928;BME280;51070;52.236;-0.892;2023-05-08T02:53:45;101052.77;;;12.22;84.66
62928;BME280;51070;52.236;-0.892;2023-05-08T02:59:11;101049.21;;;12.18;84.77
62928;BME280;51070;52.236;-0.892;2023-05-08T03:01:46;101048.91;;;12.20;84.55
62928;BME280;51070;52.236;-0.892;2023-05-08T03:04:20;101044.30;;;12.22;84.71
62928;BME280;51070;52.236;-0.892;2023-05-08T03:06:48;101043.81;;;12.23;84.51
62928;BME280;51070;52.236;-0.892;2023-05-08T03:09:18;101050.44;;;12.25;84.49
62928;BME280;51070;52.236;-0.892;2023-05-08T03:11:47;101050.94;;;12.24;84.39
62928;BME280;51070;52.236;-0.892;2023-05-08T03:14:21;101050.83;;;12.20;84.35
62928;BME280;51070;52.236;-0.892;2023-05-08T03:16:49;101049.42;;;12.19;84.44
62928;BME280;51070;52.236;-0.892;2023-05-08T03:19:28;101047.07;;;12.16;84.35
62928;BME280;51070;52.236;-0.892;2023-05-08T03:21:56;101044.02;;;12.13;84.42
62928;BME280;51070;52.236;-0.892;2023-05-08T03:24:23;101042.46;;;12.08;84.62
62928;BME280;51070;52.236;-0.892;2023-05-08T03:26:50;101042.60;;;12.01;84.81
62928;BME280;51070;52.236;-0.892;2023-05-08T03:29:17;101040.73;;;11.96;84.97
62928;BME280;51070;52.236;-0.892;2023-05-08T03:31:43;101039.15;;;11.90;85.34
62928;BME280;51070;52.236;-0.892;2023-05-08T03:34:11;101035.70;;;11.86;85.50
62928;BME280;51070;52.236;-0.892;2023-05-08T03:36:37;101032.11;;;11.81;85.68
62928;BME280;51070;52.236;-0.892;2023-05-08T03:39:02;101028.05;;;11.79;85.80
62928;BME280;51070;52.236;-0.892;2023-05-08T03:41:28;101028.66;;;11.77;85.93
62928;BME280;51070;52.236;-0.892;2023-05-08T03:43:55;101025.85;;;11.75;85.93
62928;BME280;51070;52.236;-0.892;2023-05-08T03:46:22;101023.00;;;11.73;86.18
62928;BME280;51070;52.236;-0.892;2023-05-08T03:48:49;101020.68;;;11.76;86.48
62928;BME280;51070;52.236;-0.892;2023-05-08T03:51:16;101023.20;;;11.79;86.64
62928;BME280;51070;52.236;-0.892;2023-05-08T03:53:42;101010.63;;;11.81;86.74
62928;BME280;51070;52.236;-0.892;2023-05-08T03:56:07;101012.99;;;11.85;86.66
62928;BME280;51070;52.236;-0.892;2023-05-08T03:58:47;101009.08;;;11.87;86.63
62928;BME280;51070;52.236;-0.892;2023-05-08T04:01:22;101008.75;;;11.87;86.69
62928;BME280;51070;52.236;-0.892;2023-05-08T04:04:09;101003.55;;;11.88;86.52
62928;BME280;51070;52.236;-0.892;2023-05-08T04:09:33;101001.41;;;11.91;86.91
62928;BME280;51070;52.236;-0.892;2023-05-08T04:12:19;101000.27;;;11.93;87.04
62928;BME280;51070;52.236;-0.892;2023-05-08T04:14:53;101000.70;;;11.96;87.00
62928;BME280;51070;52.236;-0.892;2023-05-08T04:17:52;101002.73;;;12.00;87.59
62928;BME280;51070;52.236;-0.892;2023-05-08T04:20:23;101001.40;;;12.01;87.18
62928;BME280;51070;52.236;-0.892;2023-05-08T04:22:52;100997.12;;;12.03;87.30
62928;BME280;51070;52.236;-0.892;2023-05-08T04:25:18;100996.50;;;12.06;87.28
62928;BME280;51070;52.236;-0.892;2023-05-08T04:27:45;100995.27;;;12.05;87.24
62928;BME280;51070;52.236;-0.892;2023-05-08T04:30:11;100994.00;;;12.03;87.31
62928;BME280;51070;52.236;-0.892;2023-05-08T04:32:37;100999.81;;;12.01;87.82
62928;BME280;51070;52.236;-0.892;2023-05-08T04:35:04;100994.29;;;11.96;87.97
62928;BME280;51070;52.236;-0.892;2023-05-08T04:37:30;100997.67;;;11.93;88.55
62928;BME280;51070;52.236;-0.892;2023-05-08T04:39:56;100999.12;;;11.90;89.02
62928;BME280;51070;52.236;-0.892;2023-05-08T04:42:22;100995.41;;;11.87;89.33
62928;BME280;51070;52.236;-0.892;2023-05-08T04:44:50;100993.77;;;11.85;89.78
62928;BME280;51070;52.236;-0.892;2023-05-08T04:47:15;100996.11;;;11.82;90.27
62928;BME280;51070;52.236;-0.892;2023-05-08T04:49:41;100999.21;;;11.81;90.37
62928;BME280;51070;52.236;-0.892;2023-05-08T04:52:06;101003.38;;;11.82;90.76
62928;BME280;51070;52.236;-0.892;2023-05-08T04:54:32;101003.56;;;11.82;91.19
62928;BME280;51070;52.236;-0.892;2023-05-08T04:56:58;101005.88;;;11.85;91.15
62928;BME280;51070;52.236;-0.892;2023-05-08T04:59:23;101004.61;;;11.88;91.03
62928;BME280;51070;52.236;-0.892;2023-05-08T05:01:49;101011.60;;;11.90;91.01
62928;BME280;51070;52.236;-0.892;2023-05-08T05:04:14;101011.30;;;11.92;91.18
62928;BME280;51070;52.236;-0.892;2023-05-08T05:06:40;101012.35;;;11.92;91.72
62928;BME280;51070;52.236;-0.892;2023-05-08T05:09:05;101011.77;;;11.90;91.99
62928;BME280;51070;52.236;-0.892;2023-05-08T05:11:30;101012.17;;;11.92;92.04
62928;BME280;51070;52.236;-0.892;2023-05-08T05:13:56;101011.93;;;11.95;92.19
62928;BME280;51070;52.236;-0.892;2023-05-08T05:16:21;101008.70;;;11.97;93.05
62928;BME280;51070;52.236;-0.892;2023-05-08T05:18:47;101004.94;;;11.98;93.62
62928;BME280;51070;52.236;-0.892;2023-05-08T05:21:12;101005.61;;;11.97;94.48
62928;BME280;51070;52.236;-0.892;2023-05-08T05:23:38;101000.05;;;11.97;94.43
62928;BME280;51070;52.236;-0.892;2023-05-08T05:26:03;101001.30;;;11.99;94.47
62928;BME280;51070;52.236;-0.892;2023-05-08T05:28:29;100999.44;;;12.00;94.61
62928;BME280;51070;52.236;-0.892;2023-05-08T05:30:54;101000.31;;;12.00;95.07
62928;BME280;51070;52.236;-0.892;2023-05-08T05:33:20;101006.18;;;12.00;95.04
62928;BME280;51070;52.236;-0.892;2023-05-08T05:35:45;101008.29;;;12.00;94.66
62928;BME280;51070;52.236;-0.892;2023-05-08T05:38:11;101008.71;;;12.03;94.91
62928;BME280;51070;52.236;-0.892;2023-05-08T05:40:36;101012.22;;;12.05;94.37
62928;BME280;51070;52.236;-0.892;2023-05-08T05:43:02;101014.05;;;12.07;94.66
62928;BME280;51070;52.236;-0.892;2023-05-08T05:45:27;101018.80;;;12.10;94.75
62928;BME280;51070;52.236;-0.892;2023-05-08T05:47:52;101015.96;;;12.13;94.62
62928;BME280;51070;52.236;-0.892;2023-05-08T05:50:19;101020.80;;;12.18;94.74
62928;BME280;51070;52.236;-0.892;2023-05-08T05:52:45;101024.90;;;12.23;94.95
62928;BME280;51070;52.236;-0.892;2023-05-08T05:55:11;101025.58;;;12.28;94.73
62928;BME280;51070;52.236;-0.892;2023-05-08T05:57:36;101022.16;;;12.35;94.74
62928;BME280;51070;52.236;-0.892;2023-05-08T06:00:03;101025.89;;;12.38;95.02
62928;BME280;51070;52.236;-0.892;2023-05-08T06:02:29;101023.80;;;12.38;95.07
62928;BME280;51070;52.236;-0.892;2023-05-08T06:04:54;101022.08;;;12.38;95.60
62928;BME280;51070;52.236;-0.892;2023-05-08T06:07:20;101021.55;;;12.38;95.36
62928;BME280;51070;52.236;-0.892;2023-05-08T06:09:46;101023.75;;;12.42;94.85
62928;BME280;51070;52.236;-0.892;2023-05-08T06:12:12;101025.02;;;12.50;94.92
62928;BME280;51070;52.236;-0.892;2023-05-08T06:14:37;101026.10;;;12.56;94.04
62928;BME280;51070;52.236;-0.892;2023-05-08T06:17:03;101026.58;;;12.61;93.53
62928;BME280;51070;52.236;-0.892;2023-05-08T06:19:28;101024.27;;;12.65;93.07
62928;BME280;51070;52.236;-0.892;2023-05-08T06:21:53;101022.84;;;12.71;92.50
62928;BME280;51070;52.236;-0.892;2023-05-08T06:24:19;101026.65;;;12.76;92.18
62928;BME280;51070;52.236;-0.892;2023-05-08T06:26:45;101026.88;;;12.84;91.49
62928;BME280;51070;52.236;-0.892;2023-05-08T06:29:11;101026.23;;;12.92;91.11
62928;BME280;51070;52.236;-0.892;2023-05-08T06:31:37;101020.57;;;13.01;90.38
62928;BME280;51070;52.236;-0.892;2023-05-08T06:34:02;101019.78;;;13.10;89.92
62928;BME280;51070;52.236;-0.892;2023-05-08T06:36:28;101019.98;;;13.16;88.91
62928;BME280;51070;52.236;-0.892;2023-05-08T06:38:54;101019.45;;;13.23;88.63
62928;BME280;51070;52.236;-0.892;2023-05-08T06:41:19;101021.51;;;13.29;87.58
62928;BME280;51070;52.236;-0.892;2023-05-08T06:43:45;101019.98;;;13.30;87.03
62928;BME280;51070;52.236;-0.892;2023-05-08T06:46:11;101023.10;;;13.30;86.82
62928;BME280;51070;52.236;-0.892;2023-05-08T06:48:37;101023.30;;;13.30;86.67
62928;BME280;51070;52.236;-0.892;2023-05-08T06:51:02;101026.65;;;13.33;86.41
62928;BME280;51070;52.236;-0.892;2023-05-08T06:53:29;101025.89;;;13.37;86.03
62928;BME280;51070;52.236;-0.892;2023-05-08T06:55:54;101029.54;;;13.37;85.59
62928;BME280;51070;52.236;-0.892;2023-05-08T06:58:22;101025.40;;;13.37;85.48
62928;BME280;51070;52.236;-0.892;2023-05-08T07:00:47;101019.60;;;13.42;85.20
62928;BME280;51070;52.236;-0.892;2023-05-08T07:03:12;101024.05;;;13.47;84.97
62928;BME280;51070;52.236;-0.892;2023-05-08T07:05:38;101027.45;;;13.51;84.27
62928;BME280;51070;52.236;-0.892;2023-05-08T07:08:03;101025.38;;;13.57;84.12
62928;BME280;51070;52.236;-0.892;2023-05-08T07:10:29;101026.92;;;13.64;83.71
62928;BME280;51070;52.236;-0.892;2023-05-08T07:12:54;101025.27;;;13.67;83.16
62928;BME280;51070;52.236;-0.892;2023-05-08T07:15:19;101019.79;;;13.70;82.87
62928;BME280;51070;52.236;-0.892;2023-05-08T07:17:46;101017.11;;;13.74;82.57
62928;BME280;51070;52.236;-0.892;2023-05-08T07:20:12;101015.19;;;13.74;82.09
62928;BME280;51070;52.236;-0.892;2023-05-08T07:22:37;101010.86;;;13.75;82.09
62928;BME280;51070;52.236;-0.892;2023-05-08T07:25:03;101010.92;;;13.78;81.42
62928;BME280;51070;52.236;-0.892;2023-05-08T07:27:29;101013.00;;;13.77;81.30
62928;BME280;51070;52.236;-0.892;2023-05-08T07:29:54;101016.63;;;13.76;81.04
62928;BME280;51070;52.236;-0.892;2023-05-08T07:32:21;101016.17;;;13.72;81.19
62928;BME280;51070;52.236;-0.892;2023-05-08T07:34:47;101015.29;;;13.71;81.20
62928;BME280;51070;52.236;-0.892;2023-05-08T07:37:12;101015.48;;;13.72;81.37
62928;BME280;51070;52.236;-0.892;2023-05-08T07:39:38;101015.04;;;13.75;81.37
62928;BME280;51070;52.236;-0.892;2023-05-08T07:42:03;101017.83;;;13.75;81.17
62928;BME280;51070;52.236;-0.892;2023-05-08T07:44:31;101012.92;;;13.74;81.26
62928;BME280;51070;52.236;-0.892;2023-05-08T07:46:59;101018.19;;;13.76;81.64
62928;BME280;51070;52.236;-0.892;2023-05-08T07:49:24;101021.26;;;13.80;81.27
62928;BME280;51070;52.236;-0.892;2023-05-08T07:51:50;101027.67;;;13.80;80.92
62928;BME280;51070;52.236;-0.892;2023-05-08T07:54:15;101022.33;;;13.82;80.99
62928;BME280;51070;52.236;-0.892;2023-05-08T07:56:41;101024.94;;;13.82;80.63
62928;BME280;51070;52.236;-0.892;2023-05-08T07:59:06;101020.87;;;13.87;80.90
62928;BME280;51070;52.236;-0.892;2023-05-08T08:01:31;101026.30;;;13.96;80.77
62928;BME280;51070;52.236;-0.892;2023-05-08T08:03:57;101022.38;;;13.92;80.01
62928;BME280;51070;52.236;-0.892;2023-05-08T08:06:23;101018.05;;;13.85;80.32
62928;BME280;51070;52.236;-0.892;2023-05-08T08:08:48;101020.33;;;13.85;80.41
62928;BME280;51070;52.236;-0.892;2023-05-08T08:11:13;101017.80;;;13.82;80.52
62928;BME280;51070;52.236;-0.892;2023-05-08T08:13:39;101023.44;;;13.78;80.68
62928;BME280;51070;52.236;-0.892;2023-05-08T08:16:05;101021.83;;;13.75;80.82
62928;BME280;51070;52.236;-0.892;2023-05-08T08:18:34;101023.46;;;13.72;81.16
62928;BME280;51070;52.236;-0.892;2023-05-08T08:21:03;101025.15;;;13.69;81.32
62928;BME280;51070;52.236;-0.892;2023-05-08T08:23:29;101022.86;;;13.68;81.40
62928;BME280;51070;52.236;-0.892;2023-05-08T08:25:54;101021.07;;;13.67;81.47
62928;BME280;51070;52.236;-0.892;2023-05-08T08:28:19;101026.41;;;13.64;81.45
62928;BME280;51070;52.236;-0.892;2023-05-08T08:30:45;101023.62;;;13.57;81.77
62928;BME280;51070;52.236;-0.892;2023-05-08T08:33:10;101020.96;;;13.55;82.30
62928;BME280;51070;52.236;-0.892;2023-05-08T08:35:36;101025.98;;;13.54;82.37
62928;BME280;51070;52.236;-0.892;2023-05-08T08:38:02;101023.77;;;13.56;82.58
62928;BME280;51070;52.236;-0.892;2023-05-08T08:40:27;101020.71;;;13.66;82.46
62928;BME280;51070;52.236;-0.892;2023-05-08T08:42:53;101021.55;;;13.79;82.01
62928;BME280;51070;52.236;-0.892;2023-05-08T08:45:19;101022.60;;;13.94;81.59
62928;BME280;51070;52.236;-0.892;2023-05-08T08:47:47;101018.45;;;14.10;80.85
62928;BME280;51070;52.236;-0.892;2023-05-08T08:50:13;101015.61;;;14.22;80.22
62928;BME280;51070;52.236;-0.892;2023-05-08T08:55:56;101008.58;;;14.42;79.17
62928;BME280;51070;52.236;-0.892;2023-05-08T08:58:30;101009.52;;;14.45;79.02
62928;BME280;51070;52.236;-0.892;2023-05-08T09:00:59;101004.20;;;14.56;79.36
62928;BME280;51070;52.236;-0.892;2023-05-08T09:03:26;100999.05;;;14.69;78.54
62928;BME280;51070;52.236;-0.892;2023-05-08T09:05:52;101005.77;;;14.74;78.40
62928;BME280;51070;52.236;-0.892;2023-05-08T09:08:18;101008.94;;;14.67;78.08
62928;BME280;51070;52.236;-0.892;2023-05-08T09:10:43;100998.92;;;14.54;78.61
62928;BME280;51070;52.236;-0.892;2023-05-08T09:13:10;101002.88;;;14.43;78.83
62928;BME280;51070;52.236;-0.892;2023-05-08T09:15:35;100996.27;;;14.43;79.53
62928;BME280;51070;52.236;-0.892;2023-05-08T09:18:01;100991.63;;;14.54;79.74
62928;BME280;51070;52.236;-0.892;2023-05-08T09:20:27;100993.48;;;14.60;79.90
62928;BME280;51070;52.236;-0.892;2023-05-08T09:22:53;100991.60;;;14.62;80.08
62928;BME280;51070;52.236;-0.892;2023-05-08T09:25:19;100988.12;;;14.70;80.08
62928;BME280;51070;52.236;-0.892;2023-05-08T09:27:45;100989.39;;;14.73;79.93
62928;BME280;51070;52.236;-0.892;2023-05-08T09:30:12;100991.77;;;14.61;80.24
62928;BME280;51070;52.236;-0.892;2023-05-08T09:32:43;100990.91;;;14.54;80.91
62928;BME280;51070;52.236;-0.892;2023-05-08T09:35:10;100989.04;;;14.47;81.45
62928;BME280;51070;52.236;-0.892;2023-05-08T09:37:37;100986.94;;;14.46;82.18
62928;BME280;51070;52.236;-0.892;2023-05-08T09:40:20;100983.48;;;14.48;82.88
62928;BME280;51070;52.236;-0.892;2023-05-08T09:42:47;100975.22;;;14.59;83.00
62928;BME280;51070;52.236;-0.892;2023-05-08T09:45:26;100976.74;;;14.76;82.19
62928;BME280;51070;52.236;-0.892;2023-05-08T09:47:52;100974.49;;;14.86;82.19
62928;BME280;51070;52.236;-0.892;2023-05-08T09:50:17;100970.06;;;14.91;82.26
62928;BME280;51070;52.236;-0.892;2023-05-08T09:52:49;100971.88;;;14.94;82.31
62928;BME280;51070;52.236;-0.892;2023-05-08T09:55:15;100976.44;;;14.97;82.56
62928;BME280;51070;52.236;-0.892;2023-05-08T09:57:53;100969.55;;;14.91;82.13
62928;BME280;51070;52.236;-0.892;2023-05-08T10:00:19;100967.45;;;14.82;83.16
62928;BME280;51070;52.236;-0.892;2023-05-08T10:03:00;100966.08;;;14.73;83.68
62928;BME280;51070;52.236;-0.892;2023-05-08T10:05:33;100965.45;;;14.67;84.06
62928;BME280;51070;52.236;-0.892;2023-05-08T10:10:42;100951.47;;;14.73;85.92
62928;BME280;51070;52.236;-0.892;2023-05-08T10:13:08;100946.86;;;14.78;85.61
62928;BME280;51070;52.236;-0.892;2023-05-08T10:15:36;100944.67;;;14.82;85.94
62928;BME280;51070;52.236;-0.892;2023-05-08T10:18:02;100939.36;;;14.87;86.06
62928;BME280;51070;52.236;-0.892;2023-05-08T10:20:30;100940.43;;;14.88;86.43
62928;BME280;51070;52.236;-0.892;2023-05-08T10:22:57;100935.52;;;14.85;86.60
62928;BME280;51070;52.236;-0.892;2023-05-08T10:25:23;100933.94;;;14.84;86.76
62928;BME280;51070;52.236;-0.892;2023-05-08T10:27:57;100929.57;;;14.83;86.95
62928;BME280;51070;52.236;-0.892;2023-05-08T10:30:25;100928.02;;;14.84;86.96
62928;BME280;51070;52.236;-0.892;2023-05-08T10:32:51;100929.07;;;14.85;86.81
62928;BME280;51070;52.236;-0.892;2023-05-08T10:35:20;100925.61;;;14.86;87.14
62928;BME280;51070;52.236;-0.892;2023-05-08T10:37:47;100929.79;;;14.95;87.20
62928;BME280;51070;52.236;-0.892;2023-05-08T10:40:13;100925.65;;;15.08;87.34
62928;BME280;51070;52.236;-0.892;2023-05-08T10:42:43;100927.09;;;15.11;86.08
62928;BME280;51070;52.236;-0.892;2023-05-08T10:45:10;100925.23;;;15.14;85.70
62928;BME280;51070;52.236;-0.892;2023-05-08T10:47:58;100933.69;;;15.20;85.26
62928;BME280;51070;52.236;-0.892;2023-05-08T10:50:37;100940.13;;;15.10;85.46
62928;BME280;51070;52.236;-0.892;2023-05-08T10:53:15;100942.92;;;15.00;86.07
62928;BME280;51070;52.236;-0.892;2023-05-08T10:55:44;100936.70;;;14.92;86.11
62928;BME280;51070;52.236;-0.892;2023-05-08T10:58:14;100935.84;;;14.84;85.81
62928;BME280;51070;52.236;-0.892;2023-05-08T11:03:24;100931.31;;;14.84;86.30
62928;BME280;51070;52.236;-0.892;2023-05-08T11:05:51;100934.73;;;14.91;86.30
62928;BME280;51070;52.236;-0.892;2023-05-08T11:08:18;100928.92;;;14.96;85.89
62928;BME280;51070;52.236;-0.892;2023-05-08T11:11:01;100924.77;;;15.08;85.47
62928;BME280;51070;52.236;-0.892;2023-05-08T11:13:46;100924.33;;;15.22;84.35
62928;BME280;51070;52.236;-0.892;2023-05-08T11:16:12;100915.33;;;15.36;83.91
62928;BME280;51070;52.236;-0.892;2023-05-08T11:25:04;100924.81;;;15.41;83.31
62928;BME280;51070;52.236;-0.892;2023-05-08T11:30:35;100931.36;;;15.16;83.38
62928;BME280;51070;52.236;-0.892;2023-05-08T11:46:03;100916.87;;;15.46;82.96
62928;BME280;51070;52.236;-0.892;2023-05-08T11:48:34;100917.42;;;15.48;82.44
62928;BME280;51070;52.236;-0.892;2023-05-08T11:51:00;100919.27;;;15.43;82.32
62928;BME280;51070;52.236;-0.892;2023-05-08T11:53:27;100925.10;;;15.38;82.41
62928;BME280;51070;52.236;-0.892;2023-05-08T11:56:04;100913.24;;;15.36;82.60
62928;BME280;51070;52.236;-0.892;2023-05-08T11:58:30;100904.48;;;15.44;82.35
62928;BME280;51070;52.236;-0.892;2023-05-08T12:00:55;100903.85;;;15.59;82.15
62928;BME280;51070;52.236;-0.892;2023-05-08T12:03:23;100899.41;;;15.65;82.00
62928;BME280;51070;52.236;-0.892;2023-05-08T12:05:54;100902.58;;;15.67;82.08
62928;BME280;51070;52.236;-0.892;2023-05-08T12:08:20;100906.58;;;15.65;82.15
62928;BME280;51070;52.236;-0.892;2023-05-08T12:13:18;100887.75;;;15.65;81.66
62928;BME280;51070;52.236;-0.892;2023-05-08T12:15:45;100884.30;;;15.80;81.53
62928;BME280;51070;52.236;-0.892;2023-05-08T12:18:12;100876.06;;;15.90;80.85
62928;BME280;51070;52.236;-0.892;2023-05-08T12:20:37;100865.52;;;15.97;80.23
62928;BME280;51070;52.236;-0.892;2023-05-08T12:23:03;100861.95;;;16.04;79.93
62928;BME280;51070;52.236;-0.892;2023-05-08T12:25:28;100872.48;;;16.09;79.45
62928;BME280;51070;52.236;-0.892;2023-05-08T12:27:54;100884.30;;;16.06;79.68
62928;BME280;51070;52.236;-0.892;2023-05-08T12:30:21;100894.72;;;16.04;79.77
62928;BME280;51070;52.236;-0.892;2023-05-08T12:32:47;100894.42;;;15.95;80.01
62928;BME280;51070;52.236;-0.892;2023-05-08T12:35:13;100898.35;;;15.89;80.25
62928;BME280;51070;52.236;-0.892;2023-05-08T12:37:40;100892.27;;;15.76;80.55
62928;BME280;51070;52.236;-0.892;2023-05-08T12:40:07;100892.61;;;15.77;80.74
62928;BME280;51070;52.236;-0.892;2023-05-08T12:42:50;100889.61;;;15.74;80.74
62928;BME280;51070;52.236;-0.892;2023-05-08T12:45:20;100888.82;;;15.67;81.29
62928;BME280;51070;52.236;-0.892;2023-05-08T12:47:51;100887.17;;;15.62;81.81
62928;BME280;51070;52.236;-0.892;2023-05-08T12:50:18;100883.89;;;15.63;82.17
62928;BME280;51070;52.236;-0.892;2023-05-08T12:52:46;100885.48;;;15.65;81.92
62928;BME280;51070;52.236;-0.892;2023-05-08T12:55:25;100889.67;;;15.67;81.36
62928;BME280;51070;52.236;-0.892;2023-05-08T13:00:24;100889.50;;;15.78;81.20
62928;BME280;51070;52.236;-0.892;2023-05-08T13:02:54;100888.39;;;15.73;81.28
62928;BME280;51070;52.236;-0.892;2023-05-08T13:05:21;100889.66;;;15.65;81.85
62928;BME280;51070;52.236;-0.892;2023-05-08T13:07:50;100886.98;;;15.61;82.39
62928;BME280;51070;52.236;-0.892;2023-05-08T13:10:18;100884.83;;;15.56;83.01
62928;BME280;51070;52.236;-0.892;2023-05-08T13:12:44;100889.84;;;15.53;83.62
62928;BME280;51070;52.236;-0.892;2023-05-08T13:15:10;100900.16;;;15.47;84.54
62928;BME280;51070;52.236;-0.892;2023-05-08T13:17:36;100900.62;;;15.42;84.81
62928;BME280;51070;52.236;-0.892;2023-05-08T13:20:01;100901.50;;;15.43;84.34
62928;BME280;51070;52.236;-0.892;2023-05-08T13:22:30;100895.98;;;15.47;84.01
62928;BME280;51070;52.236;-0.892;2023-05-08T13:24:56;100891.05;;;15.53;83.83
62928;BME280;51070;52.236;-0.892;2023-05-08T13:27:21;100890.08;;;15.58;83.59
62928;BME280;51070;52.236;-0.892;2023-05-08T13:29:47;100885.35;;;15.68;83.55
62928;BME280;51070;52.236;-0.892;2023-05-08T13:32:13;100882.09;;;15.71;83.25
62928;BME280;51070;52.236;-0.892;2023-05-08T13:34:39;100874.45;;;15.73;83.73
62928;BME280;51070;52.236;-0.892;2023-05-08T13:37:04;100868.09;;;15.80;83.72